createdAt,value
2023-01-29T00:00:24.158Z,95804.00
2023-01-29T00:01:24.162Z,95808.00
2023-01-29T00:02:24.183Z,95806.00
2023-01-29T00:03:24.169Z,95810.00
2023-01-29T00:04:24.161Z,95812.00
2023-01-29T00:05:28.506Z,95812.00
2023-01-29T00:06:24.138Z,95814.00
2023-01-29T00:07:24.160Z,95812.00
2023-01-29T00:08:24.153Z,95814.00
2023-01-29T00:09:24.156Z,95814.00
2023-01-29T00:10:24.169Z,95816.00
2023-01-29T00:11:24.151Z,95814.00
2023-01-29T00:12:24.150Z,95806.00
2023-01-29T00:13:24.164Z,95804.00
2023-01-29T00:14:24.147Z,95802.00
2023-01-29T00:15:24.133Z,95798.00
2023-01-29T00:16:24.259Z,95800.00
2023-01-29T00:17:24.175Z,95802.00
2023-01-29T00:18:24.141Z,95802.00
2023-01-29T00:19:24.166Z,95804.00
2023-01-29T00:20:24.153Z,95802.00
2023-01-29T00:21:24.172Z,95802.00
2023-01-29T00:22:24.147Z,95802.00
2023-01-29T00:23:24.175Z,95800.00
2023-01-29T00:24:24.262Z,95798.00
2023-01-29T00:25:24.147Z,95796.00
2023-01-29T00:26:24.200Z,95796.00
2023-01-29T00:27:24.232Z,95794.00
2023-01-29T00:28:24.292Z,95794.00
2023-01-29T00:29:24.317Z,95794.00
2023-01-29T00:30:24.356Z,95792.00
2023-01-29T00:31:24.499Z,95792.00
2023-01-29T00:32:24.549Z,95790.00
2023-01-29T00:33:24.530Z,95792.00
2023-01-29T00:34:24.579Z,95792.00
2023-01-29T00:35:24.577Z,95792.00
2023-01-29T00:36:24.646Z,95792.00
2023-01-29T00:37:24.721Z,95792.00
2023-01-29T00:38:24.754Z,95792.00
2023-01-29T00:39:29.406Z,95790.00
2023-01-29T00:40:25.806Z,95790.00
2023-01-29T00:41:24.769Z,95786.00
2023-01-29T00:42:24.756Z,95784.00
2023-01-29T00:43:24.751Z,95782.00
2023-01-29T00:44:24.757Z,95782.00
2023-01-29T00:45:24.741Z,95780.00
2023-01-29T00:46:24.800Z,95784.00
2023-01-29T00:47:24.763Z,95784.00
2023-01-29T00:48:24.757Z,95786.00
2023-01-29T00:49:24.756Z,95782.00
2023-01-29T00:50:24.763Z,95782.00
2023-01-29T00:51:24.745Z,95779.00
2023-01-29T00:52:24.814Z,95779.00
2023-01-29T00:53:24.840Z,95773.00
2023-01-29T00:54:24.874Z,95775.00
2023-01-29T00:55:24.952Z,95771.00
2023-01-29T00:56:24.987Z,95771.00
2023-01-29T00:57:25.031Z,95773.00
2023-01-29T00:58:25.079Z,95769.00
2023-01-29T00:59:25.148Z,95771.00
2023-01-29T01:00:25.223Z,95769.00
2023-01-29T01:01:25.248Z,95773.00
2023-01-29T01:02:25.399Z,95767.00
2023-01-29T01:03:25.353Z,95767.00
2023-01-29T01:04:25.458Z,95765.00
2023-01-29T01:05:25.454Z,95767.00
2023-01-29T01:06:25.543Z,95767.00
2023-01-29T01:07:25.574Z,95763.00
2023-01-29T01:08:25.648Z,95761.00
2023-01-29T01:09:25.707Z,95763.00
2023-01-29T01:10:25.745Z,95767.00
2023-01-29T01:11:25.843Z,95769.00
2023-01-29T01:12:25.891Z,95775.00
2023-01-29T01:13:25.991Z,95777.00
2023-01-29T01:14:26.003Z,95779.00
2023-01-29T01:15:26.064Z,95779.00
2023-01-29T01:16:26.208Z,95782.00
2023-01-29T01:17:26.121Z,95779.00
2023-01-29T01:18:26.198Z,95782.00
2023-01-29T01:19:26.243Z,95780.00
2023-01-29T01:20:26.307Z,95784.00
2023-01-29T01:21:26.385Z,95782.00
2023-01-29T01:22:26.441Z,95784.00
2023-01-29T01:23:26.448Z,95784.00
2023-01-29T01:24:26.527Z,95786.00
2023-01-29T01:25:26.607Z,95786.00
2023-01-29T01:26:26.627Z,95788.00
2023-01-29T01:27:26.725Z,95788.00
2023-01-29T01:28:26.746Z,95788.00
2023-01-29T01:29:26.803Z,95788.00
2023-01-29T01:30:26.825Z,95788.00
2023-01-29T01:31:26.997Z,95786.00
2023-01-29T01:32:26.905Z,95786.00
2023-01-29T01:33:26.950Z,95786.00
2023-01-29T01:34:27.067Z,95786.00
2023-01-29T01:35:27.076Z,95788.00
2023-01-29T01:36:27.141Z,95792.00
2023-01-29T01:37:27.177Z,95790.00
2023-01-29T01:38:27.237Z,95792.00
2023-01-29T01:39:27.284Z,95792.00
2023-01-29T01:40:27.356Z,95792.00
2023-01-29T01:41:27.384Z,95792.00
2023-01-29T01:43:27.497Z,95794.00
2023-01-29T01:44:27.577Z,95794.00
2023-01-29T01:45:27.636Z,95796.00
2023-01-29T01:46:27.693Z,95796.00
2023-01-29T01:47:27.758Z,95796.00
2023-01-29T01:48:27.815Z,95798.00
2023-01-29T01:49:27.827Z,95804.00
2023-01-29T01:54:28.098Z,95808.00
2023-01-29T01:56:28.227Z,95808.00
2023-01-29T01:57:28.287Z,95808.00
2023-01-29T01:58:28.320Z,95810.00
2023-01-29T01:59:28.397Z,95808.00
2023-01-29T02:00:28.388Z,95808.00
2023-01-29T02:02:28.633Z,95814.00
2023-01-29T02:03:28.577Z,95814.00
2023-01-29T02:04:28.654Z,95814.00
2023-01-29T02:05:28.703Z,95818.00
2023-01-29T02:06:28.744Z,95814.00
2023-01-29T02:11:29.060Z,95824.00
2023-01-29T02:12:29.112Z,95826.00
2023-01-29T02:13:29.163Z,95824.00
2023-01-29T02:14:29.215Z,95826.00
2023-01-29T02:15:29.248Z,95826.00
2023-01-29T02:16:29.272Z,95824.00
2023-01-29T02:17:29.427Z,95824.00
2023-01-29T02:18:29.396Z,95822.00
2023-01-29T02:19:29.409Z,95822.00
2023-01-29T02:20:29.447Z,95822.00
2023-01-29T02:21:29.497Z,95822.00
2023-01-29T02:22:29.637Z,95822.00
2023-01-29T02:23:29.764Z,95824.00
2023-01-29T02:24:29.704Z,95824.00
2023-01-29T02:26:29.804Z,95824.00
2023-01-29T02:27:29.852Z,95824.00
2023-01-29T02:28:29.873Z,95822.00
2023-01-29T02:29:29.933Z,95820.00
2023-01-29T02:30:29.972Z,95818.00
2023-01-29T02:31:30.052Z,95818.00
2023-01-29T02:32:30.057Z,95818.00
2023-01-29T02:33:30.113Z,95818.00
2023-01-29T02:34:30.180Z,95818.00
2023-01-29T02:35:30.225Z,95814.00
2023-01-29T02:36:30.262Z,95820.00
2023-01-29T02:37:30.298Z,95820.00
2023-01-29T02:38:30.446Z,95820.00
2023-01-29T02:39:30.417Z,95822.00
2023-01-29T02:40:30.427Z,95822.00
2023-01-29T02:41:30.470Z,95824.00
2023-01-29T02:42:30.543Z,95820.00
2023-01-29T02:43:30.583Z,95824.00
2023-01-29T02:44:30.608Z,95824.00
2023-01-29T02:45:30.682Z,95820.00
2023-01-29T02:46:30.708Z,95822.00
2023-01-29T02:47:30.769Z,95824.00
2023-01-29T02:48:30.815Z,95824.00
2023-01-29T02:49:30.875Z,95824.00
2023-01-29T02:50:30.947Z,95824.00
2023-01-29T02:51:31.007Z,95827.00
2023-01-29T02:52:31.095Z,95827.00
2023-01-29T02:53:31.059Z,95827.00
2023-01-29T02:54:31.129Z,95826.00
2023-01-29T02:55:31.178Z,95826.00
2023-01-29T03:05:31.758Z,95833.00
2023-01-29T03:06:31.798Z,95833.00
2023-01-29T03:07:31.843Z,95835.00
2023-01-29T03:08:31.883Z,95833.00
2023-01-29T03:09:31.995Z,95835.00
2023-01-29T03:10:32.001Z,95835.00
2023-01-29T03:11:32.043Z,95839.00
2023-01-29T03:12:32.101Z,95843.00
2023-01-29T03:13:32.196Z,95843.00
2023-01-29T03:14:32.230Z,95843.00
2023-01-29T03:15:32.297Z,95841.00
2023-01-29T03:16:32.403Z,95841.00
2023-01-29T03:17:32.419Z,95841.00
2023-01-29T03:18:32.459Z,95841.00
2023-01-29T03:19:32.488Z,95841.00
2023-01-29T03:20:32.578Z,95843.00
2023-01-29T03:21:32.631Z,95847.00
2023-01-29T03:22:32.707Z,95849.00
2023-01-29T03:23:32.764Z,95849.00
2023-01-29T03:24:32.809Z,95845.00
2023-01-29T03:25:32.876Z,95845.00
2023-01-29T03:26:32.931Z,95845.00
2023-01-29T03:27:33.037Z,95843.00
2023-01-29T03:28:33.077Z,95845.00
2023-01-29T03:29:33.114Z,95847.00
2023-01-29T03:44:33.982Z,95843.00
2023-01-29T03:45:34.053Z,95845.00
2023-01-29T06:06:41.721Z,95878.00
2023-01-29T06:07:43.707Z,95876.00
2023-01-29T06:08:41.831Z,95878.00
2023-01-29T06:09:41.880Z,95886.00
2023-01-29T06:10:41.939Z,95886.00
2023-01-29T06:11:41.998Z,95880.00
2023-01-29T06:12:42.035Z,95878.00
2023-01-29T06:13:42.070Z,95882.00
2023-01-29T06:14:42.157Z,95884.00
2023-01-29T06:15:42.183Z,95886.00
2023-01-29T06:16:42.230Z,95892.00
2023-01-29T06:17:42.333Z,95894.00
2023-01-29T06:18:42.360Z,95892.00
2023-01-29T06:19:42.395Z,95892.00
2023-01-29T06:20:42.439Z,95894.00
2023-01-29T06:21:42.511Z,95892.00
2023-01-29T06:22:42.529Z,95894.00
2023-01-29T06:23:42.596Z,95896.00
2023-01-29T06:24:42.620Z,95894.00
2023-01-29T06:25:42.669Z,95894.00
2023-01-29T06:26:42.711Z,95892.00
2023-01-29T06:27:42.786Z,95894.00
2023-01-29T06:28:42.806Z,95894.00
2023-01-29T06:29:42.859Z,95896.00
2023-01-29T06:30:42.981Z,95896.00
2023-01-29T06:31:43.057Z,95896.00
2023-01-29T06:32:42.990Z,95896.00
2023-01-29T06:33:43.054Z,95896.00
2023-01-29T06:34:43.074Z,95898.00
2023-01-29T06:35:43.109Z,95898.00
2023-01-29T06:36:43.143Z,95900.00
2023-01-29T06:37:43.209Z,95898.00
2023-01-29T06:38:43.244Z,95898.00
2023-01-29T06:39:43.316Z,95896.00
2023-01-29T06:40:43.326Z,95894.00
2023-01-29T06:41:43.365Z,95894.00
2023-01-29T06:42:46.035Z,95896.00
2023-01-29T06:43:43.407Z,95896.00
2023-01-29T06:44:43.408Z,95898.00
2023-01-29T06:45:43.431Z,95900.00
2023-01-29T06:46:43.396Z,95902.00
2023-01-29T06:47:43.430Z,95902.00
2023-01-29T06:48:43.415Z,95904.00
2023-01-29T06:49:43.381Z,95906.00
2023-01-29T06:50:43.445Z,95906.00
2023-01-29T06:51:43.402Z,95906.00
2023-01-29T06:52:43.411Z,95904.00
2023-01-29T06:53:45.783Z,95906.00
2023-01-29T06:54:43.378Z,95908.00
2023-01-29T06:55:43.431Z,95910.00
2023-01-29T06:56:43.420Z,95912.00
2023-01-29T06:57:43.397Z,95912.00
2023-01-29T06:58:43.411Z,95920.00
2023-01-29T06:59:43.402Z,95922.00
2023-01-29T07:00:43.472Z,95922.00
2023-01-29T07:01:43.524Z,95924.00
2023-01-29T07:02:43.422Z,95922.00
2023-01-29T07:03:43.445Z,95920.00
2023-01-29T07:04:43.459Z,95922.00
2023-01-29T07:05:43.408Z,95922.00
2023-01-29T07:06:43.427Z,95924.00
2023-01-29T07:07:43.446Z,95920.00
2023-01-29T07:08:43.438Z,95922.00
2023-01-29T07:09:43.427Z,95920.00
2023-01-29T07:10:43.436Z,95922.00
2023-01-29T07:11:43.455Z,95920.00
2023-01-29T07:12:43.461Z,95920.00
2023-01-29T07:13:43.569Z,95922.00
2023-01-29T07:14:43.407Z,95920.00
2023-01-29T07:15:43.414Z,95922.00
2023-01-29T07:16:43.470Z,95922.00
2023-01-29T07:17:43.438Z,95924.00
2023-01-29T07:18:43.418Z,95922.00
2023-01-29T07:19:43.414Z,95922.00
2023-01-29T07:20:43.437Z,95924.00
2023-01-29T07:21:43.461Z,95922.00
2023-01-29T07:22:43.440Z,95922.00
2023-01-29T07:23:43.421Z,95922.00
2023-01-29T07:24:43.404Z,95924.00
2023-01-29T07:25:43.440Z,95924.00
2023-01-29T07:26:43.421Z,95922.00
2023-01-29T07:27:43.587Z,95922.00
2023-01-29T07:28:43.427Z,95927.00
2023-01-29T07:29:43.427Z,95922.00
2023-01-29T07:30:43.385Z,95922.00
2023-01-29T07:31:43.562Z,95922.00
2023-01-29T07:32:43.428Z,95920.00
2023-01-29T07:33:43.413Z,95927.00
2023-01-29T07:34:43.416Z,95922.00
2023-01-29T07:35:43.425Z,95920.00
2023-01-29T07:36:43.426Z,95922.00
2023-01-29T07:37:43.455Z,95920.00
2023-01-29T07:38:43.423Z,95920.00
2023-01-29T07:39:43.436Z,95922.00
2023-01-29T07:40:43.408Z,95924.00
2023-01-29T07:41:43.407Z,95931.00
2023-01-29T07:42:43.447Z,95929.00
2023-01-29T07:43:43.422Z,95926.00
2023-01-29T07:44:43.438Z,95927.00
2023-01-29T07:45:43.435Z,95927.00
2023-01-29T07:46:43.412Z,95922.00
2023-01-29T07:47:43.423Z,95926.00
2023-01-29T07:48:43.428Z,95926.00
2023-01-29T07:49:43.442Z,95926.00
2023-01-29T07:50:43.448Z,95926.00
2023-01-29T07:51:43.490Z,95924.00
2023-01-29T07:52:43.536Z,95922.00
2023-01-29T07:53:43.596Z,95922.00
2023-01-29T07:54:43.632Z,95922.00
2023-01-29T07:55:43.660Z,95920.00
2023-01-29T07:56:43.739Z,95920.00
2023-01-29T07:57:43.797Z,95922.00
2023-01-29T07:58:43.824Z,95910.00
2023-01-29T07:59:43.878Z,95920.00
2023-01-29T08:00:43.887Z,95920.00
2023-01-29T08:01:43.955Z,95920.00
2023-01-29T08:02:43.990Z,95912.00
2023-01-29T08:03:44.026Z,95920.00
2023-01-29T08:04:44.071Z,95912.00
2023-01-29T08:05:44.107Z,95912.00
2023-01-29T08:06:44.146Z,95912.00
2023-01-29T08:07:49.241Z,95922.00
2023-01-29T08:08:45.154Z,95912.00
2023-01-29T08:09:44.163Z,95910.00
2023-01-29T08:10:44.147Z,95912.00
2023-01-29T08:11:44.158Z,95908.00
2023-01-29T08:12:44.172Z,95906.00
2023-01-29T08:13:44.173Z,95908.00
2023-01-29T08:14:44.145Z,95906.00
2023-01-29T08:15:44.181Z,95906.00
2023-01-29T08:16:44.235Z,95906.00
2023-01-29T08:17:57.279Z,95904.00
2023-01-29T08:19:44.202Z,95900.00
2023-01-29T08:20:44.180Z,95898.00
2023-01-29T08:21:44.221Z,95896.00
2023-01-29T08:22:44.218Z,95894.00
2023-01-29T08:23:44.242Z,95892.00
2023-01-29T08:24:54.155Z,95888.00
2023-01-29T08:25:45.228Z,95890.00
2023-01-29T08:26:44.204Z,95890.00
2023-01-29T08:27:44.633Z,95890.00
2023-01-29T08:28:44.213Z,95888.00
2023-01-29T08:29:44.227Z,95888.00
2023-01-29T08:30:44.254Z,95890.00
2023-01-29T08:31:44.261Z,95890.00
2023-01-29T08:32:44.227Z,95890.00
2023-01-29T08:33:44.240Z,95892.00
2023-01-29T08:34:44.233Z,95894.00
2023-01-29T08:35:44.208Z,95894.00
2023-01-29T08:36:44.276Z,95894.00
2023-01-29T08:37:44.326Z,95892.00
2023-01-29T08:38:44.373Z,95894.00
2023-01-29T08:39:44.429Z,95892.00
2023-01-29T08:40:44.484Z,95890.00
2023-01-29T08:41:44.561Z,95890.00
2023-01-29T08:42:44.577Z,95890.00
2023-01-29T08:43:44.639Z,95892.00
2023-01-29T08:44:44.694Z,95890.00
2023-01-29T08:45:44.741Z,95890.00
2023-01-29T08:46:44.790Z,95890.00
2023-01-29T08:47:44.847Z,95888.00
2023-01-29T08:48:44.928Z,95890.00
2023-01-29T08:49:44.910Z,95888.00
2023-01-29T08:50:44.973Z,95890.00
2023-01-29T08:51:45.010Z,95892.00
2023-01-29T08:52:45.092Z,95890.00
2023-01-29T08:53:45.118Z,95890.00
2023-01-29T08:54:45.196Z,95890.00
2023-01-29T08:55:45.226Z,95888.00
2023-01-29T08:56:45.287Z,95890.00
2023-01-29T08:57:45.312Z,95890.00
2023-01-29T08:58:45.387Z,95892.00
2023-01-29T08:59:45.434Z,95890.00
2023-01-29T09:00:45.496Z,95892.00
2023-01-29T09:01:45.544Z,95892.00
2023-01-29T09:02:45.735Z,95892.00
2023-01-29T09:03:45.674Z,95892.00
2023-01-29T09:04:45.704Z,95890.00
2023-01-29T09:05:45.771Z,95888.00
2023-01-29T09:06:45.831Z,95890.00
2023-01-29T09:07:45.867Z,95888.00
2023-01-29T09:08:45.937Z,95886.00
2023-01-29T09:09:46.006Z,95884.00
2023-01-29T09:10:46.049Z,95884.00
2023-01-29T09:11:46.062Z,95884.00
2023-01-29T09:12:46.140Z,95884.00
2023-01-29T09:13:46.161Z,95886.00
2023-01-29T09:14:46.213Z,95886.00
2023-01-29T09:15:46.296Z,95888.00
2023-01-29T09:16:46.402Z,95888.00
2023-01-29T09:17:46.404Z,95888.00
2023-01-29T09:18:46.470Z,95886.00
2023-01-29T09:19:46.506Z,95888.00
2023-01-29T09:20:46.542Z,95886.00
2023-01-29T09:21:46.576Z,95888.00
2023-01-29T09:22:46.639Z,95890.00
2023-01-29T09:23:46.687Z,95890.00
2023-01-29T09:24:46.711Z,95892.00
2023-01-29T09:25:46.773Z,95892.00
2023-01-29T09:26:46.828Z,95890.00
2023-01-29T09:27:46.864Z,95888.00
2023-01-29T09:29:46.943Z,95890.00
2023-01-29T09:30:47.100Z,95888.00
2023-01-29T09:31:47.183Z,95888.00
2023-01-29T09:32:53.731Z,95886.00
2023-01-29T09:33:48.093Z,95884.00
2023-01-29T09:34:47.073Z,95882.00
2023-01-29T09:35:47.107Z,95884.00
2023-01-29T09:36:47.086Z,95884.00
2023-01-29T11:13:51.740Z,95804.00
2023-01-29T11:14:51.770Z,95806.00
2023-01-29T11:15:51.850Z,95804.00
2023-01-29T11:16:51.985Z,95798.00
2023-01-29T11:17:51.972Z,95800.00
2023-01-29T11:18:51.977Z,95798.00
2023-01-29T11:19:52.054Z,95796.00
2023-01-29T11:20:52.088Z,95798.00
2023-01-29T11:21:52.158Z,95796.00
2023-01-29T11:22:52.196Z,95796.00
2023-01-29T11:23:52.269Z,95796.00
2023-01-29T11:24:52.308Z,95798.00
2023-01-29T11:25:52.369Z,95794.00
2023-01-29T11:26:52.436Z,95792.00
2023-01-29T11:27:52.489Z,95794.00
2023-01-29T11:28:52.508Z,95792.00
2023-01-29T11:29:52.568Z,95792.00
2023-01-29T11:30:52.728Z,95790.00
2023-01-29T11:31:52.714Z,95788.00
2023-01-29T11:32:52.735Z,95784.00
2023-01-29T11:33:52.801Z,95782.00
2023-01-29T11:34:52.851Z,95780.00
2023-01-29T11:35:53.032Z,95780.00
2023-01-29T11:36:52.917Z,95779.00
2023-01-29T11:37:52.953Z,95777.00
2023-01-29T11:38:53.011Z,95777.00
2023-01-29T11:39:53.044Z,95777.00
2023-01-29T11:40:53.076Z,95773.00
2023-01-29T11:41:53.148Z,95771.00
2023-01-29T11:42:53.201Z,95769.00
2023-01-29T11:43:53.250Z,95765.00
2023-01-29T11:44:53.329Z,95763.00
2023-01-29T11:45:53.383Z,95763.00
2023-01-29T11:46:53.402Z,95759.00
2023-01-29T11:47:53.439Z,95755.00
2023-01-29T11:48:54.799Z,95753.00
2023-01-29T11:49:53.533Z,95753.00
2023-01-29T11:50:53.529Z,95751.00
2023-01-29T11:51:53.515Z,95747.00
2023-01-29T11:52:53.508Z,95745.00
2023-01-29T11:53:53.509Z,95743.00
2023-01-29T11:54:53.519Z,95739.00
2023-01-29T11:55:53.493Z,95739.00
2023-01-29T11:56:53.497Z,95735.00
2023-01-29T11:57:53.500Z,95730.00
2023-01-29T11:58:53.520Z,95733.00
2023-01-29T11:59:53.528Z,95728.00
2023-01-29T12:00:53.500Z,95728.00
2023-01-29T12:01:53.514Z,95728.00
2023-01-29T12:02:53.533Z,95720.00
2023-01-29T12:03:53.573Z,95718.00
2023-01-29T12:04:53.525Z,95714.00
2023-01-29T12:05:53.520Z,95714.00
2023-01-29T12:06:53.536Z,95712.00
2023-01-29T12:07:53.542Z,95712.00
2023-01-29T12:08:53.550Z,95708.00
2023-01-29T12:09:53.559Z,95710.00
2023-01-29T12:10:53.533Z,95708.00
2023-01-29T12:11:53.561Z,95708.00
2023-01-29T12:12:53.552Z,95702.00
2023-01-29T12:13:53.542Z,95700.00
2023-01-29T12:14:53.565Z,95702.00
2023-01-29T12:15:54.867Z,95702.00
2023-01-29T12:16:53.541Z,95698.00
2023-01-29T12:17:53.578Z,95696.00
2023-01-29T12:18:53.555Z,95696.00
2023-01-29T12:19:53.581Z,95700.00
2023-01-29T12:20:53.586Z,95694.00
2023-01-29T12:21:53.582Z,95692.00
2023-01-29T12:22:53.605Z,95690.00
2023-01-29T12:23:53.571Z,95690.00
2023-01-29T12:24:53.585Z,95688.00
2023-01-29T12:25:53.574Z,95688.00
2023-01-29T12:26:53.590Z,95688.00
2023-01-29T12:27:53.595Z,95688.00
2023-01-29T12:28:53.587Z,95688.00
2023-01-29T12:29:53.595Z,95686.00
2023-01-29T12:30:53.654Z,95686.00
2023-01-29T12:31:54.248Z,95688.00
2023-01-29T12:32:53.606Z,95684.00
2023-01-29T12:33:53.629Z,95684.00
2023-01-29T12:34:53.646Z,95682.00
2023-01-29T12:35:53.607Z,95684.00
2023-01-29T12:36:53.617Z,95682.00
2023-01-29T12:37:53.590Z,95678.00
2023-01-29T12:38:53.653Z,95678.00
2023-01-29T12:39:53.657Z,95677.00
2023-01-29T12:40:53.741Z,95675.00
2023-01-29T12:41:53.790Z,95675.00
2023-01-29T12:42:53.854Z,95673.00
2023-01-29T12:43:53.914Z,95671.00
2023-01-29T12:44:53.961Z,95669.00
2023-01-29T12:45:54.010Z,95665.00
2023-01-29T12:46:54.127Z,95663.00
2023-01-29T12:47:54.100Z,95663.00
2023-01-29T12:48:54.134Z,95655.00
2023-01-29T12:49:54.217Z,95653.00
2023-01-29T12:50:54.265Z,95653.00
2023-01-29T12:51:54.325Z,95651.00
2023-01-29T12:52:54.371Z,95651.00
2023-01-29T12:53:54.403Z,95649.00
2023-01-29T12:54:54.521Z,95647.00
2023-01-29T12:55:54.580Z,95645.00
2023-01-29T12:56:54.591Z,95645.00
2023-01-29T12:57:54.671Z,95643.00
2023-01-29T12:58:54.706Z,95643.00
2023-01-29T12:59:54.771Z,95643.00
2023-01-29T13:00:54.894Z,95643.00
2023-01-29T13:01:54.920Z,95645.00
2023-01-29T13:02:55.006Z,95643.00
2023-01-29T13:03:54.997Z,95641.00
2023-01-29T13:04:55.071Z,95639.00
2023-01-29T13:05:55.105Z,95637.00
2023-01-29T13:06:55.176Z,95631.00
2023-01-29T13:07:55.207Z,95629.00
2023-01-29T13:08:55.297Z,95629.00
2023-01-29T13:09:55.328Z,95627.00
2023-01-29T13:10:55.376Z,95625.00
2023-01-29T13:25:56.228Z,95604.00
2023-01-29T13:30:56.499Z,95594.00
2023-01-29T13:31:56.560Z,95590.00
2023-01-29T13:32:56.577Z,95588.00
2023-01-29T13:33:56.650Z,95590.00
2023-01-29T13:34:56.702Z,95590.00
2023-01-29T13:35:56.707Z,95588.00
2023-01-29T13:36:56.825Z,95588.00
2023-01-29T13:37:56.820Z,95590.00
2023-01-29T13:38:56.858Z,95590.00
2023-01-29T13:39:56.953Z,95590.00
2023-01-29T13:40:56.985Z,95590.00
2023-01-29T13:41:57.014Z,95590.00
2023-01-29T13:42:59.957Z,95590.00
2023-01-29T13:43:57.063Z,95590.00
2023-01-29T13:44:57.128Z,95590.00
2023-01-29T13:45:57.183Z,95588.00
2023-01-29T13:46:57.131Z,95588.00
2023-01-29T13:47:57.128Z,95592.00
2023-01-29T13:48:57.103Z,95590.00
2023-01-29T13:49:57.140Z,95592.00
2023-01-29T13:50:57.119Z,95590.00
2023-01-29T13:51:57.131Z,95592.00
2023-01-29T13:52:57.134Z,95594.00
2023-01-29T13:53:57.135Z,95592.00
2023-01-29T13:54:57.174Z,95596.00
2023-01-29T13:55:57.173Z,95594.00
2023-01-29T13:56:57.183Z,95592.00
2023-01-29T13:57:57.219Z,95596.00
2023-01-29T13:58:57.198Z,95594.00
2023-01-29T13:59:57.259Z,95594.00
2023-01-29T14:00:57.282Z,95596.00
2023-01-29T14:01:57.227Z,95594.00
2023-01-29T14:02:57.254Z,95594.00
2023-01-29T14:04:05.621Z,95596.00
2023-01-29T14:04:58.289Z,95594.00
2023-01-29T14:05:57.294Z,95588.00
2023-01-29T14:06:57.314Z,95592.00
2023-01-29T14:07:57.332Z,95586.00
2023-01-29T14:08:57.318Z,95586.00
2023-01-29T14:09:57.350Z,95586.00
2023-01-29T14:10:57.326Z,95584.00
2023-01-29T14:11:58.269Z,95584.00
2023-01-29T14:12:57.343Z,95580.00
2023-01-29T14:13:57.347Z,95580.00
2023-01-29T14:14:57.349Z,95580.00
2023-01-29T14:15:57.439Z,95580.00
2023-01-29T14:16:57.488Z,95577.00
2023-01-29T14:17:57.532Z,95578.00
2023-01-29T14:18:57.619Z,95573.00
2023-01-29T14:19:57.663Z,95573.00
2023-01-29T14:20:57.744Z,95569.00
2023-01-29T14:21:57.770Z,95567.00
2023-01-29T14:22:57.842Z,95567.00
2023-01-29T14:23:57.922Z,95565.00
2023-01-29T14:24:57.951Z,95563.00
2023-01-29T14:25:58.016Z,95561.00
2023-01-29T14:26:58.052Z,95559.00
2023-01-29T14:27:58.126Z,95559.00
2023-01-29T14:28:58.173Z,95555.00
2023-01-29T14:29:58.222Z,95555.00
2023-01-29T14:30:58.332Z,95555.00
2023-01-29T14:31:58.474Z,95555.00
2023-01-29T14:32:58.394Z,95555.00
2023-01-29T14:33:58.458Z,95555.00
2023-01-29T14:34:58.518Z,95555.00
2023-01-29T14:35:58.539Z,95551.00
2023-01-29T14:51:59.451Z,95567.00
2023-01-29T14:54:59.637Z,95567.00
2023-01-29T14:55:59.686Z,95569.00
2023-01-29T14:56:59.728Z,95567.00
2023-01-29T14:57:59.757Z,95573.00
2023-01-29T14:58:59.825Z,95571.00
2023-01-29T14:59:59.912Z,95569.00
2023-01-29T15:01:00.034Z,95575.00
2023-01-29T15:01:59.988Z,95571.00
2023-01-29T15:03:02.258Z,95573.00
2023-01-29T15:04:00.120Z,95573.00
2023-01-29T15:05:00.176Z,95575.00
2023-01-29T15:06:00.211Z,95577.00
2023-01-29T15:07:00.271Z,95578.00
2023-01-29T15:08:00.333Z,95580.00
2023-01-29T15:09:00.384Z,95582.00
2023-01-29T15:10:21.017Z,95582.00
2023-01-29T15:11:01.455Z,95582.00
2023-01-29T15:12:00.464Z,95582.00
2023-01-29T15:13:00.497Z,95582.00
2023-01-29T15:14:00.457Z,95584.00
2023-01-29T15:15:00.589Z,95582.00
2023-01-29T15:16:00.512Z,95586.00
2023-01-29T15:17:00.502Z,95584.00
2023-01-29T15:18:00.517Z,95586.00
2023-01-29T15:19:00.533Z,95588.00
2023-01-29T15:20:00.596Z,95590.00
2023-01-29T15:23:00.665Z,95588.00
2023-01-29T15:26:00.840Z,95590.00
2023-01-29T15:27:00.898Z,95588.00
2023-01-29T15:28:01.112Z,95590.00
2023-01-29T15:29:05.017Z,95590.00
2023-01-29T15:30:01.116Z,95586.00
2023-01-29T15:31:01.137Z,95586.00
2023-01-29T15:32:01.085Z,95586.00
2023-01-29T15:33:01.097Z,95586.00
2023-01-29T15:34:01.096Z,95584.00
2023-01-29T15:35:01.073Z,95584.00
2023-01-29T15:36:08.827Z,95584.00
2023-01-29T15:37:02.143Z,95588.00
2023-01-29T15:38:01.119Z,95586.00
2023-01-29T15:39:01.131Z,95584.00
2023-01-29T15:40:01.172Z,95582.00
2023-01-29T15:41:01.142Z,95582.00
2023-01-29T15:42:01.154Z,95582.00
2023-01-29T15:43:01.143Z,95582.00
2023-01-29T15:44:01.162Z,95580.00
2023-01-29T15:45:01.165Z,95580.00
2023-01-29T15:46:01.183Z,95577.00
2023-01-29T15:47:01.262Z,95577.00
2023-01-29T15:48:01.225Z,95577.00
2023-01-29T15:49:01.249Z,95575.00
2023-01-29T15:50:01.397Z,95575.00
2023-01-29T15:51:01.378Z,95575.00
2023-01-29T15:52:01.419Z,95575.00
2023-01-29T15:53:01.479Z,95575.00
2023-01-29T15:54:01.546Z,95571.00
2023-01-29T15:55:01.614Z,95573.00
2023-01-29T15:56:01.673Z,95573.00
2023-01-29T15:57:01.710Z,95575.00
2023-01-29T15:58:01.780Z,95577.00
2023-01-29T15:59:02.859Z,95577.00
2023-01-29T16:00:01.919Z,95578.00
2023-01-29T16:01:01.939Z,95578.00
2023-01-29T16:02:02.823Z,95577.00
2023-01-29T16:03:02.060Z,95580.00
2023-01-29T16:04:02.117Z,95578.00
2023-01-29T16:05:02.186Z,95580.00
2023-01-29T16:06:02.237Z,95580.00
2023-01-29T16:07:02.288Z,95582.00
2023-01-29T16:08:02.390Z,95586.00
2023-01-29T16:09:02.400Z,95586.00
2023-01-29T16:10:02.525Z,95584.00
2023-01-29T16:11:02.530Z,95586.00
2023-01-29T16:12:02.581Z,95588.00
2023-01-29T16:13:02.621Z,95586.00
2023-01-29T16:14:02.663Z,95594.00
2023-01-29T16:15:02.761Z,95594.00
2023-01-29T16:16:02.821Z,95594.00
2023-01-29T16:17:02.928Z,95596.00
2023-01-29T16:18:02.909Z,95594.00
2023-01-29T16:19:02.945Z,95590.00
2023-01-29T16:20:03.037Z,95590.00
2023-01-29T16:21:03.106Z,95588.00
2023-01-29T16:22:03.152Z,95590.00
2023-01-29T16:23:03.213Z,95588.00
2023-01-29T16:24:03.221Z,95594.00
2023-01-29T16:25:03.307Z,95596.00
2023-01-29T16:26:03.370Z,95596.00
2023-01-29T16:27:03.416Z,95600.00
2023-01-29T16:28:03.489Z,95598.00
2023-01-29T16:29:03.536Z,95598.00
2023-01-29T16:30:03.597Z,95598.00
2023-01-29T16:31:05.428Z,95594.00
2023-01-29T16:32:03.763Z,95592.00
2023-01-29T16:33:03.722Z,95590.00
2023-01-29T16:34:03.800Z,95590.00
2023-01-29T16:35:03.829Z,95592.00
2023-01-29T16:36:03.918Z,95596.00
2023-01-29T16:37:03.952Z,95600.00
2023-01-29T16:38:04.057Z,95604.00
2023-01-29T16:39:04.072Z,95608.00
2023-01-29T16:40:04.153Z,95608.00
2023-01-29T16:41:04.189Z,95610.00
2023-01-29T16:42:04.279Z,95610.00
2023-01-29T16:43:04.309Z,95612.00
2023-01-29T16:44:04.396Z,95614.00
2023-01-29T16:45:04.462Z,95614.00
2023-01-29T16:46:04.523Z,95618.00
2023-01-29T16:47:04.532Z,95620.00
2023-01-29T16:48:04.623Z,95622.00
2023-01-29T16:49:04.675Z,95624.00
2023-01-29T16:50:04.738Z,95624.00
2023-01-29T16:51:04.824Z,95625.00
2023-01-29T16:52:04.827Z,95627.00
2023-01-29T16:53:04.892Z,95627.00
2023-01-29T16:54:04.958Z,95629.00
2023-01-29T16:55:05.039Z,95629.00
2023-01-29T16:56:05.081Z,95631.00
2023-01-29T16:57:05.119Z,95635.00